Terminal Aerodrome Forecast
Issued by NWS Wakefield, VA

Home | Current Version | Previous Version | Text Only | Print | Product List | Glossary On
Versions: 1 2 3 4 5 6 7 8 9 10 11 12 13 14 15 16 17 18 19 20 21 22
000
FTUS41 KAKQ 032339
TAFORF
TAF
KORF 032339Z 0400/0424 04012KT 1 1/2SM BR OVC003
      TEMPO 0400/0404 3/4SM -DZ BR OVC002
     FM040400 05008KT 1SM -DZ BR OVC002
     FM041800 10007KT P6SM OVC015=

USA.gov is the U.S. government's official web portal to all federal, state and local government web resources and services.